sensor_id;sensor_type;location;lat;lon;timestamp;P1;durP1;ratioP1;P2;durP2;ratioP2
52854;SDS011;38719;51.418;7.286;2023-02-28T00:00:52;9.32;;;5.55;;
52854;SDS011;38719;51.418;7.286;2023-02-28T00:03:20;8.77;;;5.40;;
52854;SDS011;38719;51.418;7.286;2023-02-28T00:05:48;6.45;;;4.80;;
52854;SDS011;38719;51.418;7.286;2023-02-28T00:08:15;5.72;;;4.68;;
52854;SDS011;38719;51.418;7.286;2023-02-28T00:10:43;7.65;;;5.30;;
52854;SDS011;38719;51.418;7.286;2023-02-28T00:13:11;7.97;;;4.80;;
52854;SDS011;38719;51.418;7.286;2023-02-28T00:15:39;8.27;;;5.07;;
52854;SDS011;38719;51.418;7.286;2023-02-28T00:18:06;9.93;;;5.00;;
52854;SDS011;38719;51.418;7.286;2023-02-28T00:20:34;9.63;;;5.03;;
52854;SDS011;38719;51.418;7.286;2023-02-28T00:23:01;11.65;;;5.63;;
52854;SDS011;38719;51.418;7.286;2023-02-28T00:25:29;6.22;;;4.78;;
52854;SDS011;38719;51.418;7.286;2023-02-28T00:27:56;6.97;;;5.00;;
52854;SDS011;38719;51.418;7.286;2023-02-28T00:30:25;6.03;;;5.20;;
52854;SDS011;38719;51.418;7.286;2023-02-28T00:32:52;9.25;;;5.38;;
52854;SDS011;38719;51.418;7.286;2023-02-28T00:35:20;7.38;;;4.88;;
52854;SDS011;38719;51.418;7.286;2023-02-28T00:37:47;6.93;;;5.05;;
52854;SDS011;38719;51.418;7.286;2023-02-28T00:40:15;7.38;;;5.00;;
52854;SDS011;38719;51.418;7.286;2023-02-28T00:42:42;7.03;;;4.68;;
52854;SDS011;38719;51.418;7.286;2023-02-28T00:45:10;6.97;;;4.40;;
52854;SDS011;38719;51.418;7.286;2023-02-28T00:47:39;8.32;;;4.70;;
52854;SDS011;38719;51.418;7.286;2023-02-28T00:50:07;7.03;;;5.18;;
52854;SDS011;38719;51.418;7.286;2023-02-28T00:52:36;7.90;;;5.00;;
52854;SDS011;38719;51.418;7.286;2023-02-28T00:55:04;6.82;;;4.78;;
52854;SDS011;38719;51.418;7.286;2023-02-28T00:57:32;6.93;;;4.97;;
52854;SDS011;38719;51.418;7.286;2023-02-28T00:59:59;8.23;;;4.70;;
52854;SDS011;38719;51.418;7.286;2023-02-28T01:02:27;7.53;;;4.63;;
52854;SDS011;38719;51.418;7.286;2023-02-28T01:04:56;9.55;;;4.75;;
52854;SDS011;38719;51.418;7.286;2023-02-28T01:07:23;8.15;;;5.63;;
52854;SDS011;38719;51.418;7.286;2023-02-28T01:09:51;10.52;;;5.13;;
52854;SDS011;38719;51.418;7.286;2023-02-28T01:12:18;7.00;;;4.90;;
52854;SDS011;38719;51.418;7.286;2023-02-28T01:14:46;7.70;;;4.97;;
52854;SDS011;38719;51.418;7.286;2023-02-28T01:17:13;8.05;;;5.28;;
52854;SDS011;38719;51.418;7.286;2023-02-28T01:19:41;10.43;;;5.25;;
52854;SDS011;38719;51.418;7.286;2023-02-28T01:22:09;8.70;;;5.22;;
52854;SDS011;38719;51.418;7.286;2023-02-28T01:24:37;10.40;;;5.50;;
52854;SDS011;38719;51.418;7.286;2023-02-28T01:27:04;7.93;;;5.65;;
52854;SDS011;38719;51.418;7.286;2023-02-28T01:29:32;10.85;;;5.95;;
52854;SDS011;38719;51.418;7.286;2023-02-28T01:31:59;11.25;;;6.35;;
52854;SDS011;38719;51.418;7.286;2023-02-28T01:34:27;10.13;;;5.53;;
52854;SDS011;38719;51.418;7.286;2023-02-28T01:36:54;9.35;;;5.07;;
52854;SDS011;38719;51.418;7.286;2023-02-28T01:39:26;7.85;;;5.80;;
52854;SDS011;38719;51.418;7.286;2023-02-28T01:41:53;8.90;;;6.07;;
52854;SDS011;38719;51.418;7.286;2023-02-28T01:47:25;10.57;;;5.30;;
52854;SDS011;38719;51.418;7.286;2023-02-28T01:49:55;8.02;;;5.40;;
52854;SDS011;38719;51.418;7.286;2023-02-28T01:52:24;6.40;;;5.10;;
52854;SDS011;38719;51.418;7.286;2023-02-28T01:54:58;8.15;;;5.53;;
52854;SDS011;38719;51.418;7.286;2023-02-28T02:00:05;9.60;;;4.93;;
52854;SDS011;38719;51.418;7.286;2023-02-28T02:02:40;8.48;;;5.32;;
52854;SDS011;38719;51.418;7.286;2023-02-28T02:05:11;6.78;;;5.15;;
52854;SDS011;38719;51.418;7.286;2023-02-28T02:07:41;8.25;;;4.90;;
52854;SDS011;38719;51.418;7.286;2023-02-28T02:10:14;8.48;;;5.50;;
52854;SDS011;38719;51.418;7.286;2023-02-28T02:12:55;10.48;;;5.15;;
52854;SDS011;38719;51.418;7.286;2023-02-28T02:15:32;8.02;;;5.13;;
52854;SDS011;38719;51.418;7.286;2023-02-28T02:18:06;8.70;;;5.43;;
52854;SDS011;38719;51.418;7.286;2023-02-28T02:20:46;10.05;;;5.38;;
52854;SDS011;38719;51.418;7.286;2023-02-28T02:26:33;9.63;;;5.15;;
52854;SDS011;38719;51.418;7.286;2023-02-28T02:32:09;7.50;;;4.63;;
52854;SDS011;38719;51.418;7.286;2023-02-28T02:34:50;6.70;;;5.10;;
52854;SDS011;38719;51.418;7.286;2023-02-28T02:37:27;8.52;;;4.60;;
52854;SDS011;38719;51.418;7.286;2023-02-28T02:40:05;8.63;;;5.53;;
52854;SDS011;38719;51.418;7.286;2023-02-28T02:42:39;9.52;;;5.10;;
52854;SDS011;38719;51.418;7.286;2023-02-28T02:45:13;8.93;;;5.53;;
52854;SDS011;38719;51.418;7.286;2023-02-28T02:47:45;6.65;;;4.65;;
52854;SDS011;38719;51.418;7.286;2023-02-28T02:50:17;9.07;;;5.63;;
52854;SDS011;38719;51.418;7.286;2023-02-28T02:52:48;9.68;;;4.97;;
52854;SDS011;38719;51.418;7.286;2023-02-28T02:55:21;8.70;;;5.40;;
52854;SDS011;38719;51.418;7.286;2023-02-28T02:57:51;6.78;;;5.10;;
52854;SDS011;38719;51.418;7.286;2023-02-28T03:00:22;9.13;;;5.55;;
52854;SDS011;38719;51.418;7.286;2023-02-28T03:02:54;16.48;;;7.05;;
52854;SDS011;38719;51.418;7.286;2023-02-28T03:05:25;10.20;;;6.25;;
52854;SDS011;38719;51.418;7.286;2023-02-28T03:07:55;14.05;;;6.55;;
52854;SDS011;38719;51.418;7.286;2023-02-28T03:10:30;7.07;;;5.25;;
52854;SDS011;38719;51.418;7.286;2023-02-28T03:13:09;6.13;;;4.97;;
52854;SDS011;38719;51.418;7.286;2023-02-28T03:15:47;5.90;;;4.65;;
52854;SDS011;38719;51.418;7.286;2023-02-28T03:18:28;5.05;;;4.50;;
52854;SDS011;38719;51.418;7.286;2023-02-28T03:21:06;7.03;;;4.80;;
52854;SDS011;38719;51.418;7.286;2023-02-28T03:23:42;14.38;;;5.57;;
52854;SDS011;38719;51.418;7.286;2023-02-28T03:26:17;9.95;;;5.22;;
52854;SDS011;38719;51.418;7.286;2023-02-28T03:28:51;6.93;;;4.85;;
52854;SDS011;38719;51.418;7.286;2023-02-28T03:31:26;9.38;;;4.28;;
52854;SDS011;38719;51.418;7.286;2023-02-28T03:33:59;6.32;;;4.53;;
52854;SDS011;38719;51.418;7.286;2023-02-28T03:36:33;7.30;;;4.65;;
52854;SDS011;38719;51.418;7.286;2023-02-28T03:39:11;9.15;;;4.72;;
52854;SDS011;38719;51.418;7.286;2023-02-28T03:41:42;10.27;;;4.50;;
52854;SDS011;38719;51.418;7.286;2023-02-28T03:44:16;7.77;;;4.97;;
52854;SDS011;38719;51.418;7.286;2023-02-28T03:46:48;11.27;;;4.72;;
52854;SDS011;38719;51.418;7.286;2023-02-28T03:49:22;5.68;;;4.63;;
52854;SDS011;38719;51.418;7.286;2023-02-28T03:51:55;7.40;;;4.60;;
52854;SDS011;38719;51.418;7.286;2023-02-28T03:54:27;6.35;;;4.57;;
52854;SDS011;38719;51.418;7.286;2023-02-28T03:56:59;6.55;;;4.70;;
52854;SDS011;38719;51.418;7.286;2023-02-28T03:59:32;4.53;;;3.83;;
52854;SDS011;38719;51.418;7.286;2023-02-28T04:02:03;5.35;;;4.07;;
52854;SDS011;38719;51.418;7.286;2023-02-28T04:04:31;6.78;;;4.18;;
52854;SDS011;38719;51.418;7.286;2023-02-28T04:07:04;7.32;;;4.15;;
52854;SDS011;38719;51.418;7.286;2023-02-28T04:09:33;9.35;;;5.18;;
52854;SDS011;38719;51.418;7.286;2023-02-28T04:12:01;6.97;;;4.63;;
52854;SDS011;38719;51.418;7.286;2023-02-28T04:14:29;9.50;;;4.72;;
52854;SDS011;38719;51.418;7.286;2023-02-28T04:16:56;10.93;;;5.10;;
52854;SDS011;38719;51.418;7.286;2023-02-28T04:19:24;12.90;;;5.53;;
52854;SDS011;38719;51.418;7.286;2023-02-28T04:21:52;7.38;;;5.47;;
52854;SDS011;38719;51.418;7.286;2023-02-28T04:24:22;8.30;;;5.95;;
52854;SDS011;38719;51.418;7.286;2023-02-28T04:26:51;12.15;;;6.60;;
52854;SDS011;38719;51.418;7.286;2023-02-28T04:29:21;10.50;;;6.45;;
52854;SDS011;38719;51.418;7.286;2023-02-28T04:31:50;9.32;;;5.20;;
52854;SDS011;38719;51.418;7.286;2023-02-28T04:34:19;8.55;;;5.85;;
52854;SDS011;38719;51.418;7.286;2023-02-28T04:36:47;7.63;;;5.47;;
52854;SDS011;38719;51.418;7.286;2023-02-28T04:39:37;11.07;;;5.68;;
52854;SDS011;38719;51.418;7.286;2023-02-28T04:42:06;11.90;;;6.43;;
52854;SDS011;38719;51.418;7.286;2023-02-28T04:44:33;8.85;;;5.97;;
52854;SDS011;38719;51.418;7.286;2023-02-28T04:47:01;9.07;;;5.38;;
52854;SDS011;38719;51.418;7.286;2023-02-28T04:49:28;11.77;;;5.57;;
52854;SDS011;38719;51.418;7.286;2023-02-28T04:51:56;7.88;;;5.05;;
52854;SDS011;38719;51.418;7.286;2023-02-28T04:54:23;6.85;;;4.75;;
52854;SDS011;38719;51.418;7.286;2023-02-28T04:56:52;7.20;;;4.80;;
52854;SDS011;38719;51.418;7.286;2023-02-28T04:59:20;8.52;;;4.57;;
52854;SDS011;38719;51.418;7.286;2023-02-28T05:01:48;5.50;;;4.30;;
52854;SDS011;38719;51.418;7.286;2023-02-28T05:04:16;4.90;;;4.40;;
52854;SDS011;38719;51.418;7.286;2023-02-28T05:06:44;7.55;;;4.88;;
52854;SDS011;38719;51.418;7.286;2023-02-28T05:09:11;7.85;;;4.45;;
52854;SDS011;38719;51.418;7.286;2023-02-28T05:11:39;9.50;;;4.47;;
52854;SDS011;38719;51.418;7.286;2023-02-28T05:14:10;8.00;;;4.30;;
52854;SDS011;38719;51.418;7.286;2023-02-28T05:16:39;7.38;;;5.25;;
52854;SDS011;38719;51.418;7.286;2023-02-28T05:19:06;9.73;;;5.10;;
52854;SDS011;38719;51.418;7.286;2023-02-28T05:21:34;7.32;;;4.70;;
52854;SDS011;38719;51.418;7.286;2023-02-28T05:24:04;9.50;;;4.82;;
52854;SDS011;38719;51.418;7.286;2023-02-28T05:26:34;5.72;;;4.90;;
52854;SDS011;38719;51.418;7.286;2023-02-28T05:29:03;10.30;;;5.22;;
52854;SDS011;38719;51.418;7.286;2023-02-28T05:31:32;13.18;;;4.93;;
52854;SDS011;38719;51.418;7.286;2023-02-28T05:34:00;9.18;;;5.60;;
52854;SDS011;38719;51.418;7.286;2023-02-28T05:36:30;7.75;;;5.22;;
52854;SDS011;38719;51.418;7.286;2023-02-28T05:38:57;9.57;;;4.95;;
52854;SDS011;38719;51.418;7.286;2023-02-28T05:41:26;8.00;;;4.80;;
52854;SDS011;38719;51.418;7.286;2023-02-28T05:43:54;6.18;;;5.10;;
52854;SDS011;38719;51.418;7.286;2023-02-28T05:46:22;11.20;;;4.97;;
52854;SDS011;38719;51.418;7.286;2023-02-28T05:48:51;8.82;;;4.95;;
52854;SDS011;38719;51.418;7.286;2023-02-28T05:51:18;10.95;;;5.45;;
52854;SDS011;38719;51.418;7.286;2023-02-28T05:53:46;9.68;;;5.68;;
52854;SDS011;38719;51.418;7.286;2023-02-28T05:56:14;8.20;;;5.03;;
52854;SDS011;38719;51.418;7.286;2023-02-28T05:58:42;7.25;;;5.00;;
52854;SDS011;38719;51.418;7.286;2023-02-28T06:01:19;11.30;;;5.10;;
52854;SDS011;38719;51.418;7.286;2023-02-28T06:03:48;6.68;;;4.80;;
52854;SDS011;38719;51.418;7.286;2023-02-28T06:06:18;8.63;;;5.15;;
52854;SDS011;38719;51.418;7.286;2023-02-28T06:08:45;8.45;;;5.45;;
52854;SDS011;38719;51.418;7.286;2023-02-28T06:11:13;13.20;;;6.72;;
52854;SDS011;38719;51.418;7.286;2023-02-28T06:13:40;7.53;;;6.05;;
52854;SDS011;38719;51.418;7.286;2023-02-28T06:16:08;14.35;;;6.60;;
52854;SDS011;38719;51.418;7.286;2023-02-28T06:18:38;8.10;;;5.93;;
52854;SDS011;38719;51.418;7.286;2023-02-28T06:21:05;13.65;;;5.72;;
52854;SDS011;38719;51.418;7.286;2023-02-28T06:23:36;9.18;;;5.28;;
52854;SDS011;38719;51.418;7.286;2023-02-28T06:26:03;8.63;;;5.68;;
52854;SDS011;38719;51.418;7.286;2023-02-28T06:28:31;11.02;;;5.55;;
52854;SDS011;38719;51.418;7.286;2023-02-28T06:30:59;8.65;;;4.90;;
52854;SDS011;38719;51.418;7.286;2023-02-28T06:33:26;10.07;;;5.75;;
52854;SDS011;38719;51.418;7.286;2023-02-28T06:35:54;16.95;;;5.47;;
52854;SDS011;38719;51.418;7.286;2023-02-28T06:38:21;10.13;;;5.32;;
52854;SDS011;38719;51.418;7.286;2023-02-28T06:40:54;9.00;;;5.35;;
52854;SDS011;38719;51.418;7.286;2023-02-28T06:43:22;10.30;;;5.10;;
52854;SDS011;38719;51.418;7.286;2023-02-28T06:45:50;14.45;;;6.07;;
52854;SDS011;38719;51.418;7.286;2023-02-28T06:48:21;6.82;;;4.90;;
52854;SDS011;38719;51.418;7.286;2023-02-28T06:50:49;8.63;;;5.25;;
52854;SDS011;38719;51.418;7.286;2023-02-28T06:53:17;7.82;;;5.05;;
52854;SDS011;38719;51.418;7.286;2023-02-28T06:55:44;9.48;;;5.80;;
52854;SDS011;38719;51.418;7.286;2023-02-28T06:58:13;6.95;;;5.00;;
52854;SDS011;38719;51.418;7.286;2023-02-28T07:00:44;10.07;;;5.93;;
52854;SDS011;38719;51.418;7.286;2023-02-28T07:03:13;10.90;;;6.57;;
52854;SDS011;38719;51.418;7.286;2023-02-28T07:05:41;10.85;;;5.93;;
52854;SDS011;38719;51.418;7.286;2023-02-28T07:08:09;11.05;;;6.43;;
52854;SDS011;38719;51.418;7.286;2023-02-28T07:10:37;11.85;;;5.72;;
52854;SDS011;38719;51.418;7.286;2023-02-28T07:13:05;10.45;;;5.70;;
52854;SDS011;38719;51.418;7.286;2023-02-28T07:15:35;8.23;;;5.97;;
52854;SDS011;38719;51.418;7.286;2023-02-28T07:18:07;13.98;;;5.95;;
52854;SDS011;38719;51.418;7.286;2023-02-28T07:20:35;14.70;;;5.53;;
52854;SDS011;38719;51.418;7.286;2023-02-28T07:23:02;8.95;;;5.70;;
52854;SDS011;38719;51.418;7.286;2023-02-28T07:25:30;18.73;;;5.93;;
52854;SDS011;38719;51.418;7.286;2023-02-28T07:27:57;8.85;;;5.63;;
52854;SDS011;38719;51.418;7.286;2023-02-28T07:30:26;7.57;;;5.78;;
52854;SDS011;38719;51.418;7.286;2023-02-28T07:32:55;9.80;;;5.38;;
52854;SDS011;38719;51.418;7.286;2023-02-28T07:35:23;7.55;;;5.68;;
52854;SDS011;38719;51.418;7.286;2023-02-28T07:37:50;11.13;;;5.75;;
52854;SDS011;38719;51.418;7.286;2023-02-28T07:40:18;10.98;;;5.63;;
52854;SDS011;38719;51.418;7.286;2023-02-28T07:42:45;9.60;;;5.50;;
52854;SDS011;38719;51.418;7.286;2023-02-28T07:45:13;10.10;;;5.47;;
52854;SDS011;38719;51.418;7.286;2023-02-28T07:47:41;9.45;;;5.38;;
52854;SDS011;38719;51.418;7.286;2023-02-28T07:50:11;12.07;;;5.20;;
52854;SDS011;38719;51.418;7.286;2023-02-28T07:52:40;7.72;;;5.07;;
52854;SDS011;38719;51.418;7.286;2023-02-28T07:55:09;8.80;;;6.28;;
52854;SDS011;38719;51.418;7.286;2023-02-28T07:57:36;15.23;;;5.63;;
52854;SDS011;38719;51.418;7.286;2023-02-28T08:00:06;10.43;;;5.75;;
52854;SDS011;38719;51.418;7.286;2023-02-28T08:02:38;13.07;;;5.95;;
52854;SDS011;38719;51.418;7.286;2023-02-28T08:05:06;17.00;;;6.80;;
52854;SDS011;38719;51.418;7.286;2023-02-28T08:07:36;15.38;;;7.72;;
52854;SDS011;38719;51.418;7.286;2023-02-28T08:10:04;11.15;;;6.10;;
52854;SDS011;38719;51.418;7.286;2023-02-28T08:12:32;10.85;;;6.22;;
52854;SDS011;38719;51.418;7.286;2023-02-28T08:15:00;9.07;;;5.93;;
52854;SDS011;38719;51.418;7.286;2023-02-28T08:17:27;7.68;;;5.47;;
52854;SDS011;38719;51.418;7.286;2023-02-28T08:19:55;8.35;;;5.35;;
52854;SDS011;38719;51.418;7.286;2023-02-28T08:22:22;11.50;;;5.55;;
52854;SDS011;38719;51.418;7.286;2023-02-28T08:24:51;10.32;;;5.38;;
52854;SDS011;38719;51.418;7.286;2023-02-28T08:27:18;16.00;;;5.75;;
52854;SDS011;38719;51.418;7.286;2023-02-28T08:29:46;10.93;;;5.47;;
52854;SDS011;38719;51.418;7.286;2023-02-28T08:32:13;9.07;;;5.70;;
52854;SDS011;38719;51.418;7.286;2023-02-28T08:34:54;10.65;;;5.90;;
52854;SDS011;38719;51.418;7.286;2023-02-28T08:37:22;9.63;;;5.70;;
52854;SDS011;38719;51.418;7.286;2023-02-28T08:39:51;12.07;;;6.00;;
52854;SDS011;38719;51.418;7.286;2023-02-28T08:42:21;16.77;;;6.47;;
52854;SDS011;38719;51.418;7.286;2023-02-28T08:44:49;11.90;;;6.03;;
52854;SDS011;38719;51.418;7.286;2023-02-28T08:47:16;15.02;;;6.15;;
52854;SDS011;38719;51.418;7.286;2023-02-28T08:49:44;9.23;;;5.50;;
52854;SDS011;38719;51.418;7.286;2023-02-28T08:52:12;11.60;;;6.43;;
52854;SDS011;38719;51.418;7.286;2023-02-28T08:54:39;9.43;;;5.97;;
52854;SDS011;38719;51.418;7.286;2023-02-28T08:57:08;11.05;;;5.72;;
52854;SDS011;38719;51.418;7.286;2023-02-28T08:59:36;8.20;;;5.22;;
52854;SDS011;38719;51.418;7.286;2023-02-28T09:02:03;9.55;;;5.65;;
52854;SDS011;38719;51.418;7.286;2023-02-28T09:04:31;10.88;;;5.45;;
52854;SDS011;38719;51.418;7.286;2023-02-28T09:06:58;10.80;;;5.55;;
52854;SDS011;38719;51.418;7.286;2023-02-28T09:09:26;9.65;;;5.55;;
52854;SDS011;38719;51.418;7.286;2023-02-28T09:11:54;11.43;;;5.97;;
52854;SDS011;38719;51.418;7.286;2023-02-28T09:14:23;9.32;;;5.53;;
52854;SDS011;38719;51.418;7.286;2023-02-28T09:16:51;10.63;;;5.47;;
52854;SDS011;38719;51.418;7.286;2023-02-28T09:19:19;8.27;;;5.13;;
52854;SDS011;38719;51.418;7.286;2023-02-28T09:21:46;10.02;;;4.57;;
52854;SDS011;38719;51.418;7.286;2023-02-28T09:24:14;8.52;;;4.65;;
52854;SDS011;38719;51.418;7.286;2023-02-28T09:26:41;5.72;;;4.57;;
52854;SDS011;38719;51.418;7.286;2023-02-28T09:29:29;11.80;;;4.78;;
52854;SDS011;38719;51.418;7.286;2023-02-28T09:31:57;8.73;;;5.05;;
52854;SDS011;38719;51.418;7.286;2023-02-28T09:34:25;8.93;;;4.10;;
52854;SDS011;38719;51.418;7.286;2023-02-28T09:36:53;6.68;;;4.60;;
52854;SDS011;38719;51.418;7.286;2023-02-28T09:39:21;6.30;;;4.15;;
52854;SDS011;38719;51.418;7.286;2023-02-28T09:41:50;8.48;;;4.53;;
52854;SDS011;38719;51.418;7.286;2023-02-28T09:44:20;12.82;;;4.80;;
52854;SDS011;38719;51.418;7.286;2023-02-28T09:46:57;7.45;;;4.45;;
52854;SDS011;38719;51.418;7.286;2023-02-28T09:49:31;8.85;;;4.20;;
52854;SDS011;38719;51.418;7.286;2023-02-28T09:52:06;7.35;;;4.47;;
52854;SDS011;38719;51.418;7.286;2023-02-28T09:54:37;5.97;;;4.20;;
52854;SDS011;38719;51.418;7.286;2023-02-28T09:57:07;6.35;;;4.40;;
52854;SDS011;38719;51.418;7.286;2023-02-28T09:59:39;6.15;;;4.55;;
52854;SDS011;38719;51.418;7.286;2023-02-28T10:02:24;4.95;;;4.20;;
52854;SDS011;38719;51.418;7.286;2023-02-28T10:05:08;6.95;;;4.40;;
52854;SDS011;38719;51.418;7.286;2023-02-28T10:07:43;11.85;;;4.60;;
52854;SDS011;38719;51.418;7.286;2023-02-28T10:10:21;6.00;;;4.00;;
52854;SDS011;38719;51.418;7.286;2023-02-28T10:12:53;7.15;;;4.10;;
52854;SDS011;38719;51.418;7.286;2023-02-28T10:15:25;5.25;;;3.75;;
52854;SDS011;38719;51.418;7.286;2023-02-28T10:17:58;7.47;;;3.72;;
52854;SDS011;38719;51.418;7.286;2023-02-28T10:20:35;7.38;;;3.53;;
52854;SDS011;38719;51.418;7.286;2023-02-28T10:23:09;6.82;;;3.67;;
52854;SDS011;38719;51.418;7.286;2023-02-28T10:25:44;4.30;;;3.40;;
52854;SDS011;38719;51.418;7.286;2023-02-28T10:28:17;4.57;;;3.20;;
52854;SDS011;38719;51.418;7.286;2023-02-28T10:30:45;3.40;;;2.95;;
52854;SDS011;38719;51.418;7.286;2023-02-28T10:33:21;4.80;;;2.92;;
52854;SDS011;38719;51.418;7.286;2023-02-28T10:35:51;4.15;;;3.28;;
52854;SDS011;38719;51.418;7.286;2023-02-28T10:38:20;4.70;;;3.33;;
52854;SDS011;38719;51.418;7.286;2023-02-28T10:40:50;3.80;;;2.97;;
52854;SDS011;38719;51.418;7.286;2023-02-28T10:43:19;5.13;;;2.83;;
52854;SDS011;38719;51.418;7.286;2023-02-28T10:48:43;3.78;;;2.80;;
52854;SDS011;38719;51.418;7.286;2023-02-28T10:51:14;4.80;;;2.80;;
52854;SDS011;38719;51.418;7.286;2023-02-28T10:53:47;4.68;;;2.90;;
52854;SDS011;38719;51.418;7.286;2023-02-28T10:56:27;3.30;;;2.72;;
52854;SDS011;38719;51.418;7.286;2023-02-28T10:58:57;5.85;;;3.20;;
52854;SDS011;38719;51.418;7.286;2023-02-28T11:01:34;3.95;;;2.97;;
52854;SDS011;38719;51.418;7.286;2023-02-28T11:04:05;4.25;;;3.10;;
52854;SDS011;38719;51.418;7.286;2023-02-28T11:06:44;4.47;;;3.22;;
52854;SDS011;38719;51.418;7.286;2023-02-28T11:09:18;3.78;;;3.00;;
52854;SDS011;38719;51.418;7.286;2023-02-28T11:11:50;12.73;;;3.22;;
52854;SDS011;38719;51.418;7.286;2023-02-28T11:14:19;3.63;;;2.70;;
52854;SDS011;38719;51.418;7.286;2023-02-28T11:16:49;3.20;;;2.90;;
52854;SDS011;38719;51.418;7.286;2023-02-28T11:19:20;3.67;;;2.83;;
52854;SDS011;38719;51.418;7.286;2023-02-28T11:21:53;3.25;;;2.95;;
52854;SDS011;38719;51.418;7.286;2023-02-28T11:24:24;12.20;;;3.40;;
52854;SDS011;38719;51.418;7.286;2023-02-28T11:26:55;5.55;;;4.00;;
52854;SDS011;38719;51.418;7.286;2023-02-28T11:29:24;3.45;;;3.03;;
52854;SDS011;38719;51.418;7.286;2023-02-28T11:32:07;3.67;;;3.25;;
52854;SDS011;38719;51.418;7.286;2023-02-28T11:34:41;3.25;;;2.88;;
52854;SDS011;38719;51.418;7.286;2023-02-28T11:37:11;3.42;;;3.00;;
52854;SDS011;38719;51.418;7.286;2023-02-28T11:39:40;6.25;;;3.40;;
52854;SDS011;38719;51.418;7.286;2023-02-28T11:42:11;9.10;;;3.30;;
52854;SDS011;38719;51.418;7.286;2023-02-28T11:45:00;6.57;;;3.67;;
52854;SDS011;38719;51.418;7.286;2023-02-28T11:47:47;5.80;;;3.42;;
52854;SDS011;38719;51.418;7.286;2023-02-28T11:50:26;6.05;;;3.33;;
52854;SDS011;38719;51.418;7.286;2023-02-28T11:53:05;6.40;;;3.90;;
52854;SDS011;38719;51.418;7.286;2023-02-28T11:55:42;8.32;;;3.30;;
52854;SDS011;38719;51.418;7.286;2023-02-28T11:58:19;4.72;;;3.50;;
52854;SDS011;38719;51.418;7.286;2023-02-28T12:01:00;4.05;;;3.53;;
52854;SDS011;38719;51.418;7.286;2023-02-28T12:03:39;8.55;;;3.55;;
52854;SDS011;38719;51.418;7.286;2023-02-28T12:06:20;7.43;;;3.88;;
52854;SDS011;38719;51.418;7.286;2023-02-28T12:08:58;4.32;;;3.10;;
52854;SDS011;38719;51.418;7.286;2023-02-28T12:11:38;4.55;;;3.58;;
52854;SDS011;38719;51.418;7.286;2023-02-28T12:17:20;3.70;;;3.25;;
52854;SDS011;38719;51.418;7.286;2023-02-28T12:19:54;5.55;;;3.70;;
52854;SDS011;38719;51.418;7.286;2023-02-28T12:22:30;4.18;;;3.20;;
52854;SDS011;38719;51.418;7.286;2023-02-28T12:25:10;4.10;;;3.50;;
52854;SDS011;38719;51.418;7.286;2023-02-28T12:28:08;4.70;;;3.60;;
52854;SDS011;38719;51.418;7.286;2023-02-28T12:30:39;4.00;;;3.42;;
52854;SDS011;38719;51.418;7.286;2023-02-28T12:33:14;4.03;;;3.53;;
52854;SDS011;38719;51.418;7.286;2023-02-28T12:35:47;4.20;;;3.65;;
52854;SDS011;38719;51.418;7.286;2023-02-28T12:38:19;6.13;;;3.53;;
52854;SDS011;38719;51.418;7.286;2023-02-28T12:40:50;4.45;;;3.38;;
52854;SDS011;38719;51.418;7.286;2023-02-28T12:43:22;4.50;;;3.15;;
52854;SDS011;38719;51.418;7.286;2023-02-28T12:45:56;5.72;;;3.28;;
52854;SDS011;38719;51.418;7.286;2023-02-28T12:48:31;3.40;;;3.10;;
52854;SDS011;38719;51.418;7.286;2023-02-28T12:51:06;4.70;;;3.35;;
52854;SDS011;38719;51.418;7.286;2023-02-28T12:53:38;5.68;;;3.45;;
52854;SDS011;38719;51.418;7.286;2023-02-28T12:56:17;4.15;;;3.78;;
52854;SDS011;38719;51.418;7.286;2023-02-28T12:58:50;4.80;;;3.63;;
52854;SDS011;38719;51.418;7.286;2023-02-28T13:01:29;5.22;;;3.70;;
52854;SDS011;38719;51.418;7.286;2023-02-28T13:04:27;5.60;;;3.92;;
52854;SDS011;38719;51.418;7.286;2023-02-28T13:07:15;4.50;;;3.63;;
52854;SDS011;38719;51.418;7.286;2023-02-28T13:10:00;5.10;;;3.97;;
52854;SDS011;38719;51.418;7.286;2023-02-28T13:12:32;5.03;;;3.47;;
52854;SDS011;38719;51.418;7.286;2023-02-28T13:15:05;3.83;;;3.53;;
52854;SDS011;38719;51.418;7.286;2023-02-28T13:17:38;4.40;;;3.40;;
52854;SDS011;38719;51.418;7.286;2023-02-28T13:20:14;5.65;;;3.78;;
52854;SDS011;38719;51.418;7.286;2023-02-28T13:22:45;6.15;;;3.85;;
52854;SDS011;38719;51.418;7.286;2023-02-28T13:28:55;4.75;;;3.80;;
52854;SDS011;38719;51.418;7.286;2023-02-28T13:34:36;5.22;;;3.90;;
52854;SDS011;38719;51.418;7.286;2023-02-28T13:40:06;11.75;;;4.03;;
52854;SDS011;38719;51.418;7.286;2023-02-28T13:42:49;6.90;;;3.80;;
52854;SDS011;38719;51.418;7.286;2023-02-28T13:45:26;9.27;;;4.00;;
52854;SDS011;38719;51.418;7.286;2023-02-28T13:47:58;5.07;;;4.00;;
52854;SDS011;38719;51.418;7.286;2023-02-28T13:50:29;6.00;;;4.28;;
52854;SDS011;38719;51.418;7.286;2023-02-28T13:53:03;4.03;;;3.63;;
52854;SDS011;38719;51.418;7.286;2023-02-28T13:55:57;4.35;;;3.85;;
52854;SDS011;38719;51.418;7.286;2023-02-28T13:58:41;4.28;;;3.75;;
52854;SDS011;38719;51.418;7.286;2023-02-28T14:01:21;5.07;;;4.00;;
52854;SDS011;38719;51.418;7.286;2023-02-28T14:04:00;4.47;;;3.78;;
52854;SDS011;38719;51.418;7.286;2023-02-28T14:06:51;5.50;;;4.03;;
52854;SDS011;38719;51.418;7.286;2023-02-28T14:09:21;6.35;;;3.90;;
52854;SDS011;38719;51.418;7.286;2023-02-28T14:11:52;12.35;;;4.43;;
52854;SDS011;38719;51.418;7.286;2023-02-28T14:17:26;9.20;;;4.10;;
52854;SDS011;38719;51.418;7.286;2023-02-28T14:19:55;7.55;;;4.32;;
52854;SDS011;38719;51.418;7.286;2023-02-28T14:25:18;6.82;;;4.50;;
52854;SDS011;38719;51.418;7.286;2023-02-28T14:28:01;4.20;;;3.80;;
52854;SDS011;38719;51.418;7.286;2023-02-28T14:30:49;5.20;;;4.00;;
52854;SDS011;38719;51.418;7.286;2023-02-28T14:33:31;4.78;;;3.97;;
52854;SDS011;38719;51.418;7.286;2023-02-28T14:36:14;6.30;;;4.35;;
52854;SDS011;38719;51.418;7.286;2023-02-28T14:38:48;11.40;;;4.60;;
52854;SDS011;38719;51.418;7.286;2023-02-28T14:41:20;4.75;;;4.22;;
52854;SDS011;38719;51.418;7.286;2023-02-28T14:43:50;4.43;;;3.90;;
52854;SDS011;38719;51.418;7.286;2023-02-28T14:46:20;6.53;;;4.30;;
52854;SDS011;38719;51.418;7.286;2023-02-28T14:48:51;7.95;;;4.03;;
52854;SDS011;38719;51.418;7.286;2023-02-28T14:51:19;13.85;;;5.15;;
52854;SDS011;38719;51.418;7.286;2023-02-28T14:53:49;11.07;;;4.65;;
52854;SDS011;38719;51.418;7.286;2023-02-28T14:56:22;7.88;;;4.88;;
52854;SDS011;38719;51.418;7.286;2023-02-28T14:58:53;5.68;;;4.32;;
52854;SDS011;38719;51.418;7.286;2023-02-28T15:01:23;5.55;;;4.45;;
52854;SDS011;38719;51.418;7.286;2023-02-28T15:04:01;4.88;;;3.95;;
52854;SDS011;38719;51.418;7.286;2023-02-28T15:06:31;9.30;;;4.55;;
52854;SDS011;38719;51.418;7.286;2023-02-28T15:09:13;21.58;;;5.28;;
52854;SDS011;38719;51.418;7.286;2023-02-28T15:11:45;7.60;;;4.53;;
52854;SDS011;38719;51.418;7.286;2023-02-28T15:14:15;7.10;;;4.88;;
52854;SDS011;38719;51.418;7.286;2023-02-28T15:16:46;7.20;;;4.72;;
52854;SDS011;38719;51.418;7.286;2023-02-28T15:19:21;7.45;;;5.15;;
52854;SDS011;38719;51.418;7.286;2023-02-28T15:21:52;5.78;;;4.55;;
52854;SDS011;38719;51.418;7.286;2023-02-28T15:24:25;7.20;;;4.68;;
52854;SDS011;38719;51.418;7.286;2023-02-28T15:26:59;4.88;;;4.38;;
52854;SDS011;38719;51.418;7.286;2023-02-28T15:29:30;6.82;;;4.20;;
52854;SDS011;38719;51.418;7.286;2023-02-28T15:32:18;6.70;;;4.40;;
52854;SDS011;38719;51.418;7.286;2023-02-28T15:34:53;7.03;;;4.60;;
52854;SDS011;38719;51.418;7.286;2023-02-28T15:37:28;6.70;;;4.68;;
52854;SDS011;38719;51.418;7.286;2023-02-28T15:40:05;5.05;;;4.05;;
52854;SDS011;38719;51.418;7.286;2023-02-28T15:42:39;6.55;;;4.20;;
52854;SDS011;38719;51.418;7.286;2023-02-28T15:48:13;6.22;;;4.15;;